createdAt,value
2023-12-13T00:00:00.381Z,171.50
2023-12-13T00:02:29.187Z,163.70
2023-12-13T00:04:57.287Z,168.90
2023-12-13T00:07:25.398Z,176.50
2023-12-13T00:09:53.623Z,169.00
2023-12-13T00:12:21.628Z,171.20
2023-12-13T00:14:49.611Z,177.50
2023-12-13T00:17:19.458Z,176.20
2023-12-13T00:19:48.363Z,173.60
2023-12-13T00:22:16.819Z,165.90
2023-12-13T00:24:44.948Z,166.20
2023-12-13T00:27:13.095Z,154.90
2023-12-13T00:29:42.133Z,138.50
2023-12-13T00:32:11.303Z,141.90
2023-12-13T00:34:39.634Z,130.50
2023-12-13T00:37:07.798Z,135.30
2023-12-13T00:39:35.941Z,131.80
2023-12-13T00:42:04.219Z,132.30
2023-12-13T00:44:32.742Z,126.60
2023-12-13T00:47:00.987Z,133.60
2023-12-13T00:49:29.243Z,128.60
2023-12-13T00:51:57.252Z,144.20
2023-12-13T00:54:26.213Z,155.10
2023-12-13T00:56:54.450Z,134.10
2023-12-13T00:59:22.884Z,132.00
2023-12-13T01:01:51.073Z,140.00
2023-12-13T01:04:19.670Z,145.50
2023-12-13T01:06:47.842Z,150.80
2023-12-13T01:09:15.779Z,144.90
2023-12-13T01:11:43.991Z,147.50
2023-12-13T01:14:12.091Z,149.10
2023-12-13T01:16:40.217Z,150.90
2023-12-13T01:19:09.252Z,160.70
2023-12-13T01:21:37.756Z,155.50
2023-12-13T01:24:05.899Z,147.00
2023-12-13T01:26:34.406Z,161.40
2023-12-13T01:29:02.519Z,156.00
2023-12-13T01:31:30.907Z,158.60
2023-12-13T01:33:59.158Z,160.80
2023-12-13T01:36:27.215Z,162.90
2023-12-13T01:38:55.216Z,148.00
2023-12-13T01:41:23.408Z,139.10
2023-12-13T01:43:51.647Z,151.80
2023-12-13T01:46:19.991Z,149.30
2023-12-13T01:48:48.627Z,142.00
2023-12-13T01:51:17.195Z,131.00
2023-12-13T01:53:45.583Z,136.20
2023-12-13T01:56:14.237Z,137.80
2023-12-13T01:58:43.154Z,130.00
2023-12-13T02:01:11.631Z,133.30
2023-12-13T02:03:40.873Z,135.00
2023-12-13T02:06:08.895Z,121.70
2023-12-13T02:08:37.250Z,121.30
2023-12-13T02:11:05.672Z,118.90
2023-12-13T02:13:34.746Z,121.90
2023-12-13T02:16:02.950Z,113.50
2023-12-13T02:18:31.671Z,115.90
2023-12-13T02:20:59.773Z,124.20
2023-12-13T02:23:27.826Z,130.40
2023-12-13T02:26:03.933Z,120.10
2023-12-13T02:28:32.458Z,126.80
2023-12-13T02:31:01.939Z,112.70
2023-12-13T02:33:31.498Z,119.50
2023-12-13T02:36:02.483Z,119.60
2023-12-13T02:38:31.028Z,112.40
2023-12-13T02:40:59.752Z,102.90
2023-12-13T02:43:29.509Z,104.00
2023-12-13T02:45:57.734Z,109.40
2023-12-13T02:48:26.459Z,106.40
2023-12-13T02:50:54.786Z,103.30
2023-12-13T02:53:23.473Z,96.80
2023-12-13T02:55:52.412Z,101.50
2023-12-13T02:58:20.795Z,91.90
2023-12-13T03:00:49.772Z,94.60
2023-12-13T03:03:17.850Z,92.90
2023-12-13T03:05:46.085Z,96.50
2023-12-13T03:08:18.200Z,99.00
2023-12-13T03:10:46.415Z,101.20
2023-12-13T03:13:14.715Z,93.90
2023-12-13T03:15:42.719Z,94.50
2023-12-13T03:18:11.699Z,90.30
2023-12-13T03:20:40.740Z,94.40
2023-12-13T03:23:10.189Z,84.70
2023-12-13T03:25:38.346Z,91.60
2023-12-13T03:28:06.885Z,85.10
2023-12-13T03:30:35.052Z,84.20
2023-12-13T03:33:03.180Z,91.90
2023-12-13T03:35:31.199Z,86.20
2023-12-13T03:37:59.238Z,82.00
2023-12-13T03:40:27.274Z,86.50
2023-12-13T03:42:55.299Z,94.40
2023-12-13T03:45:25.504Z,82.80
2023-12-13T03:47:54.333Z,92.90
2023-12-13T03:50:22.655Z,90.20
2023-12-13T03:52:50.779Z,88.90
2023-12-13T03:55:19.053Z,85.70
2023-12-13T03:57:47.188Z,82.30
2023-12-13T04:00:15.345Z,87.70
2023-12-13T04:02:43.466Z,86.30
2023-12-13T04:05:11.681Z,79.00
2023-12-13T04:07:39.880Z,87.40
2023-12-13T04:10:08.475Z,83.10
2023-12-13T04:12:36.587Z,85.30
2023-12-13T04:15:05.322Z,86.90
2023-12-13T04:17:33.725Z,83.80
2023-12-13T04:20:02.209Z,82.70
2023-12-13T04:22:30.538Z,76.50
2023-12-13T04:24:58.452Z,85.20
2023-12-13T04:27:26.586Z,85.10
2023-12-13T04:29:54.895Z,87.40
2023-12-13T04:32:22.888Z,85.70
2023-12-13T04:34:51.119Z,91.50
2023-12-13T04:37:19.374Z,85.40
2023-12-13T04:39:47.519Z,88.80
2023-12-13T04:42:15.433Z,97.40
2023-12-13T04:44:43.679Z,93.90
2023-12-13T04:47:11.956Z,92.60
2023-12-13T04:49:40.003Z,89.60
2023-12-13T04:52:08.291Z,88.60
2023-12-13T04:54:39.095Z,82.70
2023-12-13T04:57:07.169Z,89.80
2023-12-13T04:59:35.547Z,88.90
2023-12-13T05:02:03.760Z,82.70
2023-12-13T05:04:31.998Z,89.30
2023-12-13T05:07:00.440Z,86.90
2023-12-13T05:09:28.515Z,90.60
2023-12-13T05:11:56.746Z,90.00
2023-12-13T05:14:24.801Z,89.00
2023-12-13T05:16:52.854Z,87.40
2023-12-13T05:19:21.944Z,90.30
2023-12-13T05:21:50.247Z,87.20
2023-12-13T05:24:18.441Z,89.60
2023-12-13T05:26:46.519Z,84.00
2023-12-13T05:29:14.596Z,86.90
2023-12-13T05:31:42.726Z,91.40
2023-12-13T05:34:10.732Z,87.90
2023-12-13T05:36:38.844Z,85.60
2023-12-13T05:39:08.637Z,94.70
2023-12-13T05:41:36.730Z,93.70
2023-12-13T05:44:05.168Z,86.80
2023-12-13T05:46:35.632Z,91.60
2023-12-13T05:49:09.000Z,100.30
2023-12-13T05:51:38.742Z,94.20
2023-12-13T05:54:07.414Z,84.40
2023-12-13T05:56:35.943Z,86.30
2023-12-13T05:59:04.591Z,84.80
2023-12-13T06:01:32.843Z,75.90
2023-12-13T06:04:01.005Z,83.30
2023-12-13T06:06:29.138Z,78.30
2023-12-13T06:08:57.153Z,78.20
2023-12-13T06:11:25.690Z,80.20
2023-12-13T06:13:53.819Z,83.10
2023-12-13T06:16:22.098Z,83.20
2023-12-13T06:18:50.405Z,83.70
2023-12-13T06:21:18.541Z,78.40
2023-12-13T06:23:46.494Z,80.50
2023-12-13T06:26:14.405Z,77.80
2023-12-13T06:28:42.466Z,71.70
2023-12-13T06:31:10.724Z,81.20
2023-12-13T06:33:39.113Z,84.10
2023-12-13T06:36:07.586Z,74.30
2023-12-13T06:38:35.790Z,80.30
2023-12-13T06:41:03.925Z,75.20
2023-12-13T06:43:32.136Z,84.30
2023-12-13T06:46:00.232Z,79.40
2023-12-13T06:48:29.737Z,81.90
2023-12-13T06:50:57.818Z,74.00
2023-12-13T06:53:26.181Z,89.00
2023-12-13T06:55:55.531Z,77.70
2023-12-13T06:58:23.925Z,74.10
2023-12-13T07:00:52.661Z,78.90
2023-12-13T07:03:21.774Z,75.90
2023-12-13T07:05:49.995Z,70.20
2023-12-13T07:08:18.270Z,70.20
2023-12-13T07:10:46.615Z,71.20
2023-12-13T07:13:14.873Z,70.40
2023-12-13T07:15:42.929Z,73.60
2023-12-13T07:18:10.938Z,71.60
2023-12-13T07:20:41.785Z,68.50
2023-12-13T07:23:11.785Z,73.10
2023-12-13T07:25:40.473Z,80.80
2023-12-13T07:28:09.471Z,72.80
2023-12-13T07:30:39.069Z,78.00
2023-12-13T07:33:11.997Z,81.00
2023-12-13T07:35:40.197Z,75.40
2023-12-13T07:38:08.300Z,73.40
2023-12-13T07:40:36.346Z,65.50
2023-12-13T07:43:04.871Z,67.30
2023-12-13T07:45:33.311Z,66.10
2023-12-13T07:48:13.603Z,70.50
2023-12-13T07:50:49.514Z,69.40
2023-12-13T07:53:17.723Z,70.80
2023-12-13T07:55:45.794Z,64.60
2023-12-13T07:58:14.083Z,62.80
2023-12-13T08:00:42.336Z,60.90
2023-12-13T08:03:10.904Z,57.90
2023-12-13T08:05:39.038Z,53.20
2023-12-13T08:08:07.032Z,52.70
2023-12-13T08:10:35.487Z,55.00
2023-12-13T08:13:04.489Z,50.80
2023-12-13T08:15:32.537Z,49.80
2023-12-13T08:18:00.883Z,54.60
2023-12-13T08:20:31.798Z,48.20
2023-12-13T08:22:59.948Z,46.30
2023-12-13T08:25:28.133Z,47.30
2023-12-13T08:27:56.414Z,44.70
2023-12-13T08:30:24.610Z,44.30
2023-12-13T08:32:52.650Z,45.10
2023-12-13T08:35:20.908Z,48.80
2023-12-13T08:37:49.101Z,45.30
2023-12-13T08:40:17.257Z,39.90
2023-12-13T08:42:46.087Z,43.40
2023-12-13T08:45:14.612Z,42.90
2023-12-13T08:47:42.797Z,42.20
2023-12-13T08:50:11.223Z,40.70
2023-12-13T08:52:39.813Z,37.90
2023-12-13T08:55:11.651Z,36.30
2023-12-13T08:57:39.778Z,39.30
2023-12-13T09:00:10.686Z,45.20
2023-12-13T09:02:39.856Z,41.50
2023-12-13T09:05:08.625Z,34.90
2023-12-13T09:07:37.567Z,35.20
2023-12-13T09:10:09.511Z,33.70
2023-12-13T09:12:38.018Z,39.00
2023-12-13T09:15:08.824Z,37.10
2023-12-13T09:17:37.884Z,34.50
2023-12-13T09:20:11.059Z,38.20
2023-12-13T09:22:39.756Z,42.60
2023-12-13T09:25:08.641Z,35.90
2023-12-13T09:27:37.338Z,33.80
2023-12-13T09:30:06.028Z,38.30
2023-12-13T09:32:36.888Z,37.30
2023-12-13T09:35:05.742Z,33.90
2023-12-13T09:37:34.337Z,33.20
2023-12-13T09:40:03.748Z,35.80
2023-12-13T09:42:32.639Z,37.70
2023-12-13T09:45:03.218Z,38.50
2023-12-13T09:47:35.129Z,38.30
2023-12-13T09:50:03.788Z,44.00
2023-12-13T09:52:33.218Z,40.50
2023-12-13T09:55:02.408Z,40.30
2023-12-13T09:57:30.573Z,36.20
2023-12-13T09:59:58.975Z,36.80
2023-12-13T10:02:27.549Z,37.60
2023-12-13T10:04:57.815Z,37.70
2023-12-13T10:07:26.781Z,40.80
2023-12-13T10:09:56.913Z,39.00
2023-12-13T10:12:26.828Z,41.80
2023-12-13T10:14:55.058Z,39.70
2023-12-13T10:17:23.996Z,38.20
2023-12-13T10:19:52.149Z,41.00
2023-12-13T10:22:20.568Z,35.60
2023-12-13T10:24:49.285Z,40.90
2023-12-13T10:27:18.199Z,37.40
2023-12-13T10:29:49.262Z,36.00
2023-12-13T10:32:19.914Z,38.10
2023-12-13T10:34:48.109Z,34.90
2023-12-13T10:37:16.783Z,41.50
2023-12-13T10:39:48.043Z,39.10
2023-12-13T10:42:19.420Z,36.40
2023-12-13T10:44:52.002Z,38.50
2023-12-13T10:47:28.094Z,38.30
2023-12-13T10:49:57.472Z,39.20
2023-12-13T10:52:28.252Z,38.40
2023-12-13T10:54:57.090Z,42.70
2023-12-13T10:57:25.926Z,40.10
2023-12-13T10:59:55.273Z,35.10
2023-12-13T11:02:27.560Z,33.60
2023-12-13T11:04:56.070Z,39.80
2023-12-13T11:07:24.232Z,36.80
2023-12-13T11:09:54.407Z,36.10
2023-12-13T11:12:23.496Z,39.70
2023-12-13T11:14:53.457Z,40.80
2023-12-13T11:17:23.847Z,43.10
2023-12-13T11:19:54.302Z,44.00
2023-12-13T11:22:24.982Z,48.20
2023-12-13T11:25:04.776Z,46.20
2023-12-13T11:27:33.898Z,43.00
2023-12-13T11:30:14.078Z,44.30
2023-12-13T11:32:49.911Z,41.50
2023-12-13T11:35:20.903Z,40.80
2023-12-13T11:37:54.562Z,42.10
2023-12-13T11:40:23.194Z,45.90
2023-12-13T11:42:51.989Z,44.60
2023-12-13T11:45:21.696Z,47.60
2023-12-13T11:47:51.687Z,48.30
2023-12-13T11:50:21.447Z,51.00
2023-12-13T11:52:50.070Z,44.70
2023-12-13T11:55:23.914Z,45.30
2023-12-13T11:57:54.978Z,38.80
2023-12-13T12:00:23.297Z,35.70
2023-12-13T12:02:55.341Z,29.70
2023-12-13T12:05:26.978Z,30.20
2023-12-13T12:08:04.832Z,29.30
2023-12-13T12:10:33.605Z,42.90
2023-12-13T12:13:02.902Z,36.00
2023-12-13T12:15:32.780Z,34.60
2023-12-13T12:18:02.724Z,38.40
2023-12-13T12:20:30.886Z,36.40
2023-12-13T12:22:59.645Z,34.80
2023-12-13T12:25:31.999Z,35.00
2023-12-13T12:28:00.399Z,31.40
2023-12-13T12:30:28.718Z,33.00
2023-12-13T12:32:57.022Z,33.70
2023-12-13T12:35:25.149Z,38.50
2023-12-13T12:37:53.211Z,36.60
2023-12-13T12:40:21.516Z,36.60
2023-12-13T12:42:49.612Z,40.50
2023-12-13T12:45:17.661Z,36.70
2023-12-13T12:47:45.923Z,39.90
2023-12-13T12:50:14.201Z,40.30
2023-12-13T12:52:43.525Z,35.00
2023-12-13T12:55:12.031Z,36.70
2023-12-13T12:57:40.136Z,41.60
2023-12-13T13:00:08.537Z,35.60
2023-12-13T13:02:36.584Z,37.70
2023-12-13T13:05:05.169Z,35.60
2023-12-13T13:07:35.627Z,37.90
2023-12-13T13:10:06.450Z,37.70
2023-12-13T13:12:34.482Z,38.60
2023-12-13T13:15:02.487Z,37.40
2023-12-13T13:17:31.697Z,40.90
2023-12-13T13:20:02.981Z,37.20
2023-12-13T13:22:31.094Z,41.10
2023-12-13T13:24:59.215Z,35.40
2023-12-13T13:27:29.173Z,37.00
2023-12-13T13:29:57.720Z,35.60
2023-12-13T13:32:26.164Z,38.00
2023-12-13T13:34:54.813Z,34.60
2023-12-13T13:37:23.213Z,38.10
2023-12-13T13:39:51.497Z,41.10
2023-12-13T13:42:19.490Z,41.50
2023-12-13T13:44:47.601Z,39.30
2023-12-13T13:47:15.653Z,42.50
2023-12-13T13:49:43.860Z,39.00
2023-12-13T13:52:12.164Z,35.60
2023-12-13T13:54:41.072Z,42.20
2023-12-13T13:57:09.521Z,44.90
2023-12-13T13:59:37.696Z,44.10
2023-12-13T14:02:06.694Z,37.20
2023-12-13T14:04:34.868Z,36.00
2023-12-13T14:07:03.113Z,38.60
2023-12-13T14:09:31.279Z,41.50
2023-12-13T14:11:59.405Z,38.40
2023-12-13T14:14:27.511Z,35.30
2023-12-13T14:16:55.493Z,35.90
2023-12-13T14:19:23.582Z,36.60
2023-12-13T14:21:51.817Z,37.50
2023-12-13T14:24:20.190Z,34.10
2023-12-13T14:26:48.865Z,34.70
2023-12-13T14:29:17.198Z,40.50
2023-12-13T14:31:46.102Z,40.70
2023-12-13T14:34:14.205Z,29.90
2023-12-13T14:36:42.306Z,35.30
2023-12-13T14:39:10.156Z,33.90
2023-12-13T14:41:38.321Z,36.50
2023-12-13T14:44:08.970Z,32.20
2023-12-13T14:46:37.832Z,35.20
2023-12-13T14:49:09.251Z,30.20
2023-12-13T14:51:38.729Z,39.70
2023-12-13T14:54:06.890Z,49.50
2023-12-13T14:56:37.400Z,41.90
2023-12-13T14:59:05.912Z,36.90
2023-12-13T15:01:34.305Z,41.00
2023-12-13T15:04:03.731Z,30.70
2023-12-13T15:06:36.679Z,33.90
2023-12-13T15:09:04.872Z,21.80
2023-12-13T15:11:32.935Z,23.20
2023-12-13T15:14:01.103Z,25.20
2023-12-13T15:16:30.109Z,24.10
2023-12-13T15:19:01.252Z,20.50
2023-12-13T15:21:29.896Z,24.60
2023-12-13T15:23:58.202Z,24.50
2023-12-13T15:26:26.540Z,24.50
2023-12-13T15:28:55.254Z,21.80
2023-12-13T15:31:25.206Z,18.20
2023-12-13T15:33:53.388Z,18.00
2023-12-13T15:36:22.246Z,19.00
2023-12-13T15:38:50.388Z,20.50
2023-12-13T15:41:18.773Z,24.90
2023-12-13T15:43:48.169Z,22.70
2023-12-13T15:46:16.504Z,19.40
2023-12-13T15:48:44.599Z,19.20
2023-12-13T15:51:12.681Z,19.70
2023-12-13T15:53:40.901Z,21.40
2023-12-13T15:56:09.573Z,21.40
2023-12-13T15:58:41.877Z,22.20
2023-12-13T16:01:10.625Z,35.80
2023-12-13T16:03:39.586Z,42.80
2023-12-13T16:06:08.053Z,35.80
2023-12-13T16:08:36.196Z,29.00
2023-12-13T16:11:09.542Z,34.20
2023-12-13T16:13:39.812Z,30.90
2023-12-13T16:16:08.843Z,22.60
2023-12-13T16:18:37.085Z,18.00
2023-12-13T16:21:07.361Z,18.80
2023-12-13T16:23:36.557Z,20.20
2023-12-13T16:26:04.882Z,19.50
2023-12-13T16:28:32.922Z,18.90
2023-12-13T16:31:01.492Z,19.40
2023-12-13T16:33:29.500Z,18.80
2023-12-13T16:35:57.720Z,17.20
2023-12-13T16:38:26.629Z,21.10
2023-12-13T16:40:55.033Z,20.00
2023-12-13T16:43:23.228Z,23.00
2023-12-13T16:45:52.081Z,19.00
2023-12-13T16:48:21.190Z,18.40
2023-12-13T16:50:49.446Z,15.50
2023-12-13T16:53:17.502Z,17.70
2023-12-13T16:55:45.456Z,18.40
2023-12-13T16:58:14.158Z,16.20
2023-12-13T17:00:43.913Z,12.90
2023-12-13T17:03:13.258Z,13.30
2023-12-13T17:05:41.918Z,13.70
2023-12-13T17:08:10.864Z,13.00
2023-12-13T17:10:39.129Z,14.00
2023-12-13T17:13:07.335Z,12.20
2023-12-13T17:15:35.301Z,15.20
2023-12-13T17:18:03.553Z,16.30
2023-12-13T17:20:31.521Z,17.00
2023-12-13T17:22:59.763Z,19.10
2023-12-13T17:25:27.872Z,16.50
2023-12-13T17:27:55.823Z,13.70
2023-12-13T17:30:24.161Z,15.20
2023-12-13T17:32:52.408Z,17.40
2023-12-13T17:35:22.176Z,15.10
2023-12-13T17:37:50.160Z,15.20
2023-12-13T17:40:18.954Z,14.60
2023-12-13T17:42:47.117Z,14.20
2023-12-13T17:45:15.332Z,15.10
2023-12-13T17:47:43.520Z,13.20
2023-12-13T17:50:11.650Z,16.20
2023-12-13T17:52:40.011Z,19.00
2023-12-13T17:55:08.458Z,27.20
2023-12-13T17:57:36.575Z,25.40
2023-12-13T18:00:05.894Z,23.20
2023-12-13T18:02:34.162Z,22.60
2023-12-13T18:05:02.541Z,24.10
2023-12-13T18:07:33.238Z,21.50
2023-12-13T18:10:02.798Z,20.10
2023-12-13T18:12:31.055Z,27.40
2023-12-13T18:15:02.856Z,27.30
2023-12-13T18:17:32.723Z,31.20
2023-12-13T18:20:01.941Z,26.60
2023-12-13T18:22:30.077Z,29.00
2023-12-13T18:24:58.281Z,31.10
2023-12-13T18:27:26.478Z,32.60
2023-12-13T18:29:54.538Z,30.80
2023-12-13T18:32:22.579Z,30.90
2023-12-13T18:34:50.668Z,29.20
2023-12-13T18:37:19.100Z,27.80
2023-12-13T18:39:47.573Z,26.60
2023-12-13T18:42:15.534Z,26.00
2023-12-13T18:44:43.572Z,28.40
2023-12-13T18:47:11.534Z,27.30
2023-12-13T18:49:41.098Z,27.50
2023-12-13T18:52:09.282Z,29.10
2023-12-13T18:54:38.376Z,28.20
2023-12-13T18:57:06.485Z,26.70
2023-12-13T18:59:35.367Z,28.90
2023-12-13T19:02:03.491Z,25.80
2023-12-13T19:04:31.478Z,24.40
2023-12-13T19:06:59.717Z,25.70
2023-12-13T19:09:29.145Z,29.50
2023-12-13T19:11:57.552Z,27.20
2023-12-13T19:14:28.676Z,27.90
2023-12-13T19:16:56.682Z,29.30
2023-12-13T19:19:24.814Z,29.50
2023-12-13T19:21:53.139Z,25.80
2023-12-13T19:24:21.108Z,27.10
2023-12-13T19:26:49.129Z,31.30
2023-12-13T19:29:17.719Z,25.50
2023-12-13T19:31:46.454Z,27.70
2023-12-13T19:34:23.176Z,22.80
2023-12-13T19:36:59.535Z,23.10
2023-12-13T19:39:27.626Z,26.10
2023-12-13T19:41:55.918Z,25.90
2023-12-13T19:44:23.967Z,25.40
2023-12-13T19:46:52.114Z,26.30
2023-12-13T19:49:20.212Z,26.80
2023-12-13T19:51:51.394Z,25.60
2023-12-13T19:54:19.499Z,26.50
2023-12-13T19:56:47.857Z,26.20
2023-12-13T19:59:16.172Z,24.30
2023-12-13T20:01:44.446Z,25.00
2023-12-13T20:04:12.718Z,27.00
2023-12-13T20:06:40.736Z,24.80
2023-12-13T20:09:08.923Z,22.70
2023-12-13T20:11:37.077Z,25.80
2023-12-13T20:14:05.809Z,26.90
2023-12-13T20:16:34.119Z,28.20
2023-12-13T20:19:02.292Z,24.50
2023-12-13T20:21:31.976Z,26.20
2023-12-13T20:24:00.730Z,25.00
2023-12-13T20:26:29.738Z,27.10
2023-12-13T20:28:58.205Z,26.00
2023-12-13T20:31:26.287Z,26.10
2023-12-13T20:33:54.529Z,25.00
2023-12-13T20:36:22.886Z,24.70
2023-12-13T20:38:51.552Z,24.70
2023-12-13T20:41:19.770Z,26.20
2023-12-13T20:43:47.908Z,23.50
2023-12-13T20:46:15.972Z,24.30
2023-12-13T20:48:44.064Z,25.10
2023-12-13T20:51:12.123Z,25.80
2023-12-13T20:53:42.846Z,27.70
2023-12-13T20:56:11.781Z,24.10
2023-12-13T20:58:41.047Z,22.50
2023-12-13T21:01:09.202Z,24.60
2023-12-13T21:03:38.397Z,25.20
2023-12-13T21:06:06.925Z,27.20
2023-12-13T21:08:35.014Z,29.30
2023-12-13T21:11:03.281Z,28.70
2023-12-13T21:13:33.409Z,28.40
2023-12-13T21:16:01.809Z,26.90
2023-12-13T21:18:30.185Z,24.00
2023-12-13T21:20:58.714Z,24.70
2023-12-13T21:23:26.910Z,25.80
2023-12-13T21:25:54.988Z,24.90
2023-12-13T21:28:23.575Z,23.80
2023-12-13T21:30:52.343Z,25.20
2023-12-13T21:33:20.536Z,22.50
2023-12-13T21:35:50.231Z,26.60
2023-12-13T21:38:18.715Z,26.90
2023-12-13T21:40:46.884Z,25.80
2023-12-13T21:43:14.929Z,25.30
2023-12-13T21:45:43.007Z,25.00
2023-12-13T21:48:11.235Z,25.10
2023-12-13T21:50:39.562Z,24.80
2023-12-13T21:53:07.465Z,23.10
2023-12-13T21:55:36.313Z,23.90
2023-12-13T21:58:04.394Z,22.00
2023-12-13T22:00:32.489Z,23.50
2023-12-13T22:03:00.631Z,25.60
2023-12-13T22:05:28.918Z,23.30
2023-12-13T22:07:56.966Z,26.30
2023-12-13T22:10:28.135Z,23.60
2023-12-13T22:12:56.658Z,24.70
2023-12-13T22:15:24.614Z,21.20
2023-12-13T22:17:56.040Z,21.30
2023-12-13T22:20:24.550Z,20.50
2023-12-13T22:22:52.969Z,23.50
2023-12-13T22:25:21.410Z,21.80
2023-12-13T22:27:49.429Z,24.10
2023-12-13T22:30:17.640Z,22.00
2023-12-13T22:32:45.780Z,22.50
2023-12-13T22:35:14.012Z,22.20
2023-12-13T22:37:42.404Z,19.70
2023-12-13T22:40:10.930Z,21.20
2023-12-13T22:42:39.096Z,19.90
2023-12-13T22:45:07.424Z,22.20
2023-12-13T22:47:35.431Z,21.40
2023-12-13T22:50:03.972Z,21.40
2023-12-13T22:52:33.205Z,24.50
2023-12-13T22:55:01.308Z,24.90
2023-12-13T22:57:29.209Z,26.20
2023-12-13T22:59:57.607Z,30.20
2023-12-13T23:02:25.710Z,27.70
2023-12-13T23:04:54.141Z,28.20
2023-12-13T23:07:22.357Z,28.20
2023-12-13T23:09:50.385Z,29.80
2023-12-13T23:12:18.340Z,28.00
2023-12-13T23:14:46.553Z,27.30
2023-12-13T23:17:14.659Z,28.80
2023-12-13T23:19:42.789Z,26.60
2023-12-13T23:22:11.068Z,27.10
2023-12-13T23:24:39.360Z,28.10
2023-12-13T23:27:07.654Z,25.80
2023-12-13T23:29:39.190Z,23.50
2023-12-13T23:32:07.685Z,22.60
2023-12-13T23:34:35.912Z,21.70
2023-12-13T23:37:04.097Z,21.70
2023-12-13T23:39:32.133Z,21.90
2023-12-13T23:42:00.249Z,22.00
2023-12-13T23:44:28.442Z,17.30
2023-12-13T23:46:58.830Z,16.90
2023-12-13T23:49:27.039Z,16.40
2023-12-13T23:51:55.476Z,16.90
2023-12-13T23:54:23.658Z,17.60
2023-12-13T23:56:51.646Z,18.10
2023-12-13T23:59:19.889Z,15.30
